Time;durP1;ratioP1;P1;durP2;ratioP2;P2;SDS_P1;SDS_P2;PMS_P1;PMS_P2;Temp;Humidity;BMP_temperature;BMP_pressure;BME280_temperature;BME280_humidity;BME280_pressure;Samples;Min_cycle;Max_cycle;Signal;HPM_P1;HPM_P2
2023/04/30 00:00:36;;;;;;;31.05;18.30;;;;;;;9.17;100.00;92828.50;5130266;27;20088;-72
2023/04/30 00:03:03;;;;;;;27.15;16.27;;;;;;;9.05;100.00;92830.94;5131479;27;20051;-72
2023/04/30 00:05:29;;;;;;;25.67;14.50;;;;;;;8.97;100.00;92828.66;5131233;27;20050;-72
2023/04/30 00:07:56;;;;;;;29.08;15.25;;;;;;;8.89;100.00;92834.81;5131153;27;20047;-72
2023/04/30 00:10:23;;;;;;;19.75;13.48;;;;;;;8.69;100.00;92818.59;5130962;27;20499;-72
2023/04/30 00:12:50;;;;;;;24.30;15.32;;;;;;;8.65;100.00;92821.75;5131119;27;20044;-72
2023/04/30 00:15:18;;;;;;;27.83;15.60;;;;;;;8.58;100.00;92821.81;5131137;27;20047;-72
2023/04/30 00:17:44;;;;;;;25.85;16.83;;;;;;;8.51;100.00;92828.69;5131051;27;20162;-72
2023/04/30 00:20:12;;;;;;;25.58;15.82;;;;;;;8.43;100.00;92827.97;5130438;27;20092;-72
2023/04/30 00:22:39;;;;;;;21.92;13.13;;;;;;;8.35;100.00;92822.31;5131103;27;20050;-72
2023/04/30 00:25:06;;;;;;;13.98;9.82;;;;;;;8.31;100.00;92828.81;5130654;27;20064;-72
2023/04/30 00:27:33;;;;;;;14.50;9.80;;;;;;;8.24;100.00;92827.06;5130960;27;20126;-72
2023/04/30 00:29:59;;;;;;;14.30;9.95;;;;;;;8.10;100.00;92810.22;5130631;27;20552;-72
2023/04/30 00:32:28;;;;;;;11.98;8.25;;;;;;;8.12;100.00;92826.16;5130674;27;20078;-72
2023/04/30 00:34:54;;;;;;;14.68;8.38;;;;;;;8.01;100.00;92825.03;5130294;27;20080;-72
2023/04/30 00:37:21;;;;;;;11.85;7.75;;;;;;;7.96;100.00;92829.97;5130505;27;20048;-72
2023/04/30 00:39:48;;;;;;;11.75;6.85;;;;;;;7.91;100.00;92832.34;5129322;27;20035;-72
2023/04/30 00:42:14;;;;;;;9.68;7.32;;;;;;;7.82;100.00;92831.78;5130716;27;20096;-72
2023/04/30 00:44:41;;;;;;;10.52;6.60;;;;;;;7.75;100.00;92831.78;5130224;27;20046;-72
2023/04/30 00:47:08;;;;;;;11.68;7.35;;;;;;;7.65;100.00;92829.66;5130214;27;20131;-72
2023/04/30 00:49:36;;;;;;;10.20;7.05;;;;;;;7.61;100.00;92831.84;5130181;27;20039;-72
2023/04/30 00:52:03;;;;;;;8.82;6.72;;;;;;;7.51;100.00;92815.34;5130271;27;20051;-72
2023/04/30 00:54:30;;;;;;;9.90;6.70;;;;;;;7.55;100.00;92829.28;5130193;27;20097;-72
2023/04/30 00:56:58;;;;;;;9.75;6.60;;;;;;;7.59;100.00;92831.25;5130503;27;20043;-72
2023/04/30 00:59:25;;;;;;;9.80;6.65;;;;;;;7.59;100.00;92830.47;5130003;27;20598;-72
2023/04/30 01:01:52;;;;;;;8.65;6.25;;;;;;;7.59;100.00;92830.47;5130541;27;20047;-72
2023/04/30 01:04:19;;;;;;;11.68;7.03;;;;;;;7.52;100.00;92825.38;5130001;27;20535;-72
2023/04/30 01:06:47;;;;;;;8.15;6.05;;;;;;;7.50;100.00;92817.09;5129761;27;20058;-72
2023/04/30 01:09:15;;;;;;;9.00;6.18;;;;;;;7.46;100.00;92816.72;5130047;27;20039;-72
2023/04/30 01:11:55;;;;;;;10.07;6.22;;;;;;;7.44;100.00;92820.44;5129867;27;20050;-72
2023/04/30 01:14:28;;;;;;;8.43;6.28;;;;;;;7.43;100.00;92818.88;5129734;27;20521;-72
2023/04/30 01:17:05;;;;;;;11.48;6.47;;;;;;;7.41;100.00;92823.41;5129790;27;20517;-72
2023/04/30 01:19:39;;;;;;;10.05;7.05;;;;;;;7.26;100.00;92811.63;5129794;27;20043;-72
2023/04/30 01:22:11;;;;;;;10.77;7.57;;;;;;;7.34;100.00;92823.41;5129706;27;20043;-72
2023/04/30 01:25:02;;;;;;;9.00;6.38;;;;;;;7.34;100.00;92818.31;5129670;27;20132;-72
2023/04/30 01:27:40;;;;;;;9.23;6.38;;;;;;;7.28;100.00;92814.78;5129316;27;20047;-72
2023/04/30 01:30:09;;;;;;;10.63;7.13;;;;;;;7.26;100.00;92818.53;5129103;27;20208;-72
2023/04/30 01:32:36;;;;;;;8.38;6.45;;;;;;;7.24;100.00;92821.28;5129064;27;20043;-72
2023/04/30 01:35:03;;;;;;;11.63;7.45;;;;;;;7.22;100.00;92810.47;5129681;27;20128;-72
2023/04/30 01:37:40;;;;;;;12.02;8.05;;;;;;;7.19;100.00;92811.63;5129362;27;20050;-71
2023/04/30 01:40:23;;;;;;;11.02;8.88;;;;;;;7.21;100.00;92816.56;5129215;27;20139;-72
2023/04/30 01:42:55;;;;;;;12.13;8.07;;;;;;;7.19;100.00;92823.63;5129432;27;20116;-72
2023/04/30 01:45:37;;;;;;;12.85;7.47;;;;;;;7.20;100.00;92818.34;5129037;27;20534;-72
2023/04/30 01:48:14;;;;;;;11.98;7.93;;;;;;;7.16;100.00;92816.38;5129003;27;20058;-72
2023/04/30 01:50:48;;;;;;;13.88;9.75;;;;;;;7.19;100.00;92819.31;5129081;27;20066;-71
2023/04/30 01:53:21;;;;;;;13.70;9.70;;;;;;;7.13;100.00;92807.31;5114756;27;20071;-71
2023/04/30 01:55:52;;;;;;;12.48;9.75;;;;;;;7.21;100.00;92816.56;5123395;27;20043;-71
2023/04/30 01:58:22;;;;;;;16.23;8.98;;;;;;;7.11;100.00;92818.72;5119896;27;20055;-71
2023/04/30 02:00:50;;;;;;;11.88;9.10;;;;;;;7.02;100.00;92805.38;5117721;27;20043;-72
2023/04/30 02:03:17;;;;;;;19.33;11.27;;;;;;;7.04;100.00;92813.63;5129161;27;20437;-71
2023/04/30 02:05:44;;;;;;;16.05;11.02;;;;;;;6.98;100.00;92814.44;5129102;27;20035;-72
2023/04/30 02:08:11;;;;;;;14.38;10.40;;;;;;;6.97;100.00;92802.63;5128929;27;20442;-71
2023/04/30 02:10:38;;;;;;;19.98;13.25;;;;;;;7.00;100.00;92810.69;5128364;27;20047;-71
2023/04/30 02:13:04;;;;;;;17.67;12.85;;;;;;;7.05;100.00;92810.88;5129121;27;20119;-71
2023/04/30 02:15:31;;;;;;;14.60;11.07;;;;;;;7.09;100.00;92809.50;5128831;27;20039;-71
2023/04/30 02:17:59;;;;;;;14.32;11.55;;;;;;;7.17;100.00;92812.84;5128577;27;20111;-72
2023/04/30 02:20:26;;;;;;;13.77;10.15;;;;;;;7.20;100.00;92810.69;5128700;27;20062;-72
2023/04/30 02:22:53;;;;;;;15.52;10.95;;;;;;;7.28;100.00;92808.88;5128864;27;20043;-72
2023/04/30 02:25:20;;;;;;;17.05;11.73;;;;;;;7.35;100.00;92807.91;5128652;27;20069;-72
2023/04/30 02:27:46;;;;;;;18.75;11.55;;;;;;;7.39;100.00;92812.59;5128264;27;20042;-72
2023/04/30 02:30:13;;;;;;;16.98;10.63;;;;;;;7.45;100.00;92804.16;5128355;27;20055;-71
2023/04/30 02:32:40;;;;;;;15.18;10.18;;;;;;;7.51;100.00;92811.03;5128346;27;20039;-71
2023/04/30 02:35:08;;;;;;;15.80;10.57;;;;;;;7.58;100.00;92816.88;5128214;27;20560;-72
2023/04/30 02:37:35;;;;;;;13.88;9.13;;;;;;;7.63;100.00;92806.06;5128495;27;20043;-72
2023/04/30 02:40:02;;;;;;;15.43;9.45;;;;;;;7.64;100.00;92806.84;5128509;27;20549;-72
2023/04/30 02:42:29;;;;;;;17.58;10.02;;;;;;;7.70;100.00;92811.16;5128450;27;20050;-72
2023/04/30 02:44:55;;;;;;;13.10;9.10;;;;;;;7.74;100.00;92814.88;5128445;27;20046;-72
2023/04/30 02:47:22;;;;;;;14.65;8.75;;;;;;;7.75;100.00;92814.69;5128130;27;20135;-72
2023/04/30 02:49:49;;;;;;;13.32;8.95;;;;;;;7.80;100.00;92808.97;5128094;27;20047;-72
2023/04/30 02:52:17;;;;;;;12.52;8.63;;;;;;;7.81;100.00;92815.66;5127955;28;20116;-72
2023/04/30 02:54:44;;;;;;;12.77;8.50;;;;;;;7.83;100.00;92813.66;5128421;28;20126;-72
2023/04/30 02:57:10;;;;;;;11.88;8.23;;;;;;;7.85;100.00;92804.03;5128081;28;20502;-72
2023/04/30 02:59:37;;;;;;;13.35;8.80;;;;;;;7.83;100.00;92811.09;5127893;28;20088;-72
2023/04/30 03:02:04;;;;;;;11.40;8.38;;;;;;;7.70;100.00;92796.63;5128115;27;20051;-72
2023/04/30 03:04:31;;;;;;;13.25;9.48;;;;;;;7.78;100.00;92822.94;5131744;27;20107;-72
2023/04/30 03:06:59;;;;;;;12.40;9.23;;;;;;;7.78;100.00;92821.16;5132113;27;20547;-72
2023/04/30 03:09:27;;;;;;;13.77;8.90;;;;;;;7.80;100.00;92821.75;5132064;27;20057;-72
2023/04/30 03:11:54;;;;;;;13.18;8.77;;;;;;;7.78;100.00;92818.59;5132779;27;20047;-72
2023/04/30 03:14:21;;;;;;;10.55;7.88;;;;;;;7.79;100.00;92824.50;5132039;27;20043;-72
2023/04/30 03:16:48;;;;;;;10.07;7.03;;;;;;;7.77;100.00;92819.59;5132381;27;20043;-71
2023/04/30 03:19:14;;;;;;;11.32;6.95;;;;;;;7.76;100.00;92820.56;5131967;27;20039;-71
2023/04/30 03:21:41;;;;;;;9.50;7.28;;;;;;;7.77;100.00;92827.25;5132447;27;20513;-72
2023/04/30 03:24:08;;;;;;;10.52;6.93;;;;;;;7.76;100.00;92828.25;5132045;27;20035;-71
2023/04/30 03:26:36;;;;;;;9.75;7.22;;;;;;;7.70;100.00;92823.94;5132109;27;20229;-71
2023/04/30 03:29:03;;;;;;;9.60;6.78;;;;;;;7.75;100.00;92819.00;5132051;27;20051;-72
2023/04/30 03:31:30;;;;;;;9.70;7.32;;;;;;;7.77;100.00;92821.38;5132175;27;20039;-72
2023/04/30 03:33:56;;;;;;;8.20;5.97;;;;;;;7.79;100.00;92824.50;5132392;27;20046;-71
2023/04/30 03:36:23;;;;;;;8.52;6.68;;;;;;;7.81;100.00;92835.31;5131959;27;20046;-71
2023/04/30 03:38:50;;;;;;;9.30;7.05;;;;;;;7.79;100.00;92837.28;5132132;27;20054;-71
2023/04/30 03:41:17;;;;;;;12.85;8.48;;;;;;;7.79;100.00;92837.28;5131817;27;20104;-71
2023/04/30 03:43:47;;;;;;;12.20;7.57;;;;;;;7.81;100.00;92836.09;5131225;27;20043;-72
2023/04/30 03:46:14;;;;;;;11.40;8.45;;;;;;;7.83;100.00;92843.56;5132002;27;20054;-72
2023/04/30 03:48:40;;;;;;;10.77;8.15;;;;;;;7.85;100.00;92850.06;5132077;27;20157;-71
2023/04/30 03:51:08;;;;;;;12.30;9.05;;;;;;;7.84;100.00;92845.94;5131449;27;20043;-71
2023/04/30 03:53:35;;;;;;;13.98;9.45;;;;;;;7.59;100.00;92838.13;5131218;27;20065;-71
2023/04/30 03:56:02;;;;;;;16.08;9.45;;;;;;;7.77;100.00;92845.16;5128357;27;20456;-71
2023/04/30 03:58:29;;;;;;;13.43;9.30;;;;;;;7.83;100.00;92854.56;5129275;27;20494;-71
2023/04/30 04:00:57;;;;;;;17.42;10.40;;;;;;;7.92;100.00;92854.38;5131301;27;20054;-71
2023/04/30 04:03:24;;;;;;;13.55;9.52;;;;;;;8.02;100.00;92858.06;5131185;27;20058;-72
2023/04/30 04:05:51;;;;;;;19.42;10.52;;;;;;;8.04;100.00;92854.53;5131024;27;20046;-72
2023/04/30 04:08:18;;;;;;;14.25;9.38;;;;;;;8.15;100.00;92846.22;5116950;27;20056;-72
2023/04/30 04:10:45;;;;;;;14.55;11.38;;;;;;;8.09;100.00;92852.13;5110318;28;20151;-72
2023/04/30 04:13:11;;;;;;;20.65;12.02;;;;;;;8.02;100.00;92857.28;5116237;27;20079;-72
2023/04/30 04:15:38;;;;;;;16.85;11.00;;;;;;;8.10;100.00;92858.84;5128940;27;20135;-72
2023/04/30 04:18:07;;;;;;;13.23;9.68;;;;;;;8.21;100.00;92854.84;5104921;27;20621;-72
2023/04/30 04:20:34;;;;;;;18.17;10.68;;;;;;;8.27;100.00;92856.59;5106524;27;20054;-72
2023/04/30 04:23:01;;;;;;;14.05;10.52;;;;;;;8.31;100.00;92857.75;5104554;27;20231;-72
2023/04/30 04:25:27;;;;;;;12.70;10.90;;;;;;;8.46;100.00;92860.03;5101464;27;20048;-72
2023/04/30 04:27:54;;;;;;;15.77;10.75;;;;;;;8.58;100.00;92861.97;5107165;27;20095;-71
2023/04/30 04:30:21;;;;;;;12.27;8.95;;;;;;;8.71;100.00;92867.03;5107492;27;20107;-72
2023/04/30 04:32:49;;;;;;;13.57;9.25;;;;;;;8.75;100.00;92869.97;5103552;27;20757;-72
2023/04/30 04:35:18;;;;;;;14.77;9.43;;;;;;;8.81;100.00;92858.91;5106512;27;20071;-72
2023/04/30 04:37:45;;;;;;;15.10;9.38;;;;;;;8.85;100.00;92849.81;5101214;27;20181;-72
2023/04/30 04:40:12;;;;;;;13.30;8.80;;;;;;;8.79;100.00;92877.03;5104868;27;20123;-72
2023/04/30 04:42:39;;;;;;;14.63;9.63;;;;;;;8.91;100.00;92866.91;5106634;28;20048;-72
2023/04/30 04:45:08;;;;;;;14.05;9.70;;;;;;;8.92;100.00;92855.66;5128407;27;20527;-72
2023/04/30 04:47:35;;;;;;;13.85;9.52;;;;;;;9.16;100.00;92875.63;5130211;27;20133;-72
2023/04/30 04:50:02;;;;;;;15.55;8.35;;;;;;;9.07;100.00;92883.53;5129315;27;20051;-72
2023/04/30 04:52:30;;;;;;;15.50;9.50;;;;;;;9.17;100.00;92887.44;5129956;27;20043;-72
2023/04/30 04:54:57;;;;;;;19.38;9.75;;;;;;;9.24;100.00;92885.59;5130135;27;20530;-72
2023/04/30 04:57:24;;;;;;;14.90;9.10;;;;;;;9.33;100.00;92883.56;5129332;27;20519;-72
2023/04/30 04:59:51;;;;;;;13.15;8.48;;;;;;;9.43;100.00;92893.31;5111117;27;20074;-72
2023/04/30 05:02:17;;;;;;;12.63;8.07;;;;;;;9.48;100.00;92890.91;5113782;27;20042;-72
2023/04/30 05:04:45;;;;;;;13.02;8.38;;;;;;;9.57;100.00;92891.44;5126858;27;20423;-72
2023/04/30 05:07:12;;;;;;;12.75;8.52;;;;;;;9.57;100.00;92876.03;5128887;27;20047;-72
2023/04/30 05:09:40;;;;;;;11.05;8.15;;;;;;;9.71;100.00;92876.72;5114856;27;20052;-72
2023/04/30 05:12:07;;;;;;;13.43;8.35;;;;;;;9.75;100.00;92878.66;5129239;27;20051;-72
2023/04/30 05:14:34;;;;;;;13.27;8.80;;;;;;;9.91;100.00;92893.69;5129153;27;20160;-72
2023/04/30 05:17:01;;;;;;;16.75;9.48;;;;;;;9.92;100.00;92879.88;5114484;27;20047;-72
2023/04/30 05:19:28;;;;;;;13.48;8.80;;;;;;;10.03;100.00;92877.38;5124306;27;20051;-72
2023/04/30 05:21:54;;;;;;;13.93;8.70;;;;;;;10.17;100.00;92890.06;5129072;27;20039;-71
2023/04/30 05:24:21;;;;;;;12.95;8.43;;;;;;;10.26;100.00;92898.25;5128775;27;20441;-72
2023/04/30 05:26:49;;;;;;;15.80;9.65;;;;;;;10.32;100.00;92894.81;5127959;27;20039;-72
2023/04/30 05:29:16;;;;;;;15.07;8.63;;;;;;;10.42;100.00;92900.22;5128676;27;20055;-72
2023/04/30 05:31:43;;;;;;;12.27;8.00;;;;;;;10.48;100.00;92897.84;5128917;27;20054;-72
2023/04/30 05:34:09;;;;;;;11.98;8.98;;;;;;;10.59;100.00;92886.06;5129008;27;20453;-72
2023/04/30 05:36:36;;;;;;;14.35;8.63;;;;;;;10.70;100.00;92887.88;5129014;27;20185;-72
2023/04/30 05:39:03;;;;;;;12.35;8.57;;;;;;;10.79;100.00;92888.34;5128751;27;20452;-72
2023/04/30 05:41:30;;;;;;;16.05;10.52;;;;;;;10.86;100.00;92888.25;5128265;27;20096;-72
2023/04/30 05:43:58;;;;;;;20.23;10.80;;;;;;;10.97;100.00;92890.06;5128420;27;20092;-72
2023/04/30 05:46:25;;;;;;;32.17;14.15;;;;;;;11.06;100.00;92886.19;5128817;27;20047;-72
2023/04/30 05:48:51;;;;;;;24.77;12.30;;;;;;;11.15;100.00;92878.94;5127895;27;21471;-72
2023/04/30 05:51:18;;;;;;;19.52;10.27;;;;;;;11.26;100.00;92882.56;5128348;27;20043;-72
2023/04/30 05:53:45;;;;;;;20.83;11.07;;;;;;;11.38;100.00;92890.25;5128053;27;20567;-72
2023/04/30 05:56:12;;;;;;;21.85;11.00;;;;;;;11.51;100.00;92891.84;5128981;27;20092;-72
2023/04/30 05:58:39;;;;;;;20.13;11.27;;;;;;;11.62;100.00;92898.00;5122366;27;20119;-72
2023/04/30 06:01:09;;;;;;;18.65;11.68;;;;;;;11.76;99.78;92901.16;5119433;27;20047;-72
2023/04/30 06:03:37;;;;;;;18.58;9.73;;;;;;;11.87;97.89;92899.56;5118825;27;20074;-72
2023/04/30 06:06:04;;;;;;;15.63;9.15;;;;;;;12.03;96.24;92900.66;5118122;27;20079;-72
2023/04/30 06:08:31;;;;;;;13.98;9.05;;;;;;;12.00;99.25;92903.69;5115850;27;20134;-72
2023/04/30 06:10:58;;;;;;;14.55;8.70;;;;;;;11.97;99.35;92902.34;5114693;27;20046;-72
2023/04/30 06:13:24;;;;;;;11.32;7.65;;;;;;;11.96;99.73;92910.28;5122825;27;20134;-72
2023/04/30 06:15:51;;;;;;;14.18;9.13;;;;;;;12.12;99.13;92907.06;5111674;27;20475;-73
2023/04/30 06:18:19;;;;;;;16.33;9.93;;;;;;;12.26;99.17;92911.97;5108670;27;20087;-72
2023/04/30 06:20:46;;;;;;;16.88;10.90;;;;;;;12.43;97.81;92909.47;5112064;27;20069;-72
2023/04/30 06:23:13;;;;;;;19.67;13.40;;;;;;;12.41;99.65;92912.25;5127956;27;20047;-72
2023/04/30 06:25:40;;;;;;;21.00;14.68;;;;;;;12.40;100.00;92909.91;5112400;27;20075;-72
2023/04/30 06:28:08;;;;;;;21.60;12.95;;;;;;;12.53;98.70;92907.09;5110692;27;20384;-72
2023/04/30 06:30:36;;;;;;;17.27;12.10;;;;;;;12.82;98.28;92904.50;5114483;27;20062;-72
2023/04/30 06:33:03;;;;;;;19.25;11.20;;;;;;;13.23;96.02;92901.84;5103674;28;20133;-72
2023/04/30 06:35:31;;;;;;;17.75;10.60;;;;;;;13.67;92.88;92905.63;5103914;27;20055;-72
2023/04/30 06:37:58;;;;;;;20.67;11.38;;;;;;;14.09;86.87;92912.16;5114192;27;20043;-72
2023/04/30 06:40:25;;;;;;;19.02;10.30;;;;;;;14.51;85.68;92899.72;5122351;27;20841;-72
2023/04/30 06:42:53;;;;;;;20.80;10.45;;;;;;;14.94;81.92;92907.69;5128335;27;20065;-72
2023/04/30 06:45:20;;;;;;;22.70;10.85;;;;;;;15.06;78.83;92903.16;5127869;27;20053;-72
2023/04/30 06:47:47;;;;;;;20.80;10.85;;;;;;;15.06;77.35;92908.34;5127633;27;20055;-72
2023/04/30 06:50:14;;;;;;;21.92;8.65;;;;;;;14.88;71.58;92908.66;5127817;27;20665;-72
2023/04/30 06:52:43;;;;;;;20.25;7.90;;;;;;;14.76;73.60;92914.00;5127795;27;20047;-72
2023/04/30 06:55:11;;;;;;;18.02;9.75;;;;;;;15.10;74.47;92911.22;5123414;28;20117;-72
2023/04/30 06:57:38;;;;;;;11.38;5.05;;;;;;;15.43;70.98;92899.06;5103507;28;20044;-72
2023/04/30 07:00:06;;;;;;;16.88;5.35;;;;;;;16.01;72.18;92905.41;5122591;28;20043;-72
2023/04/30 07:02:33;;;;;;;13.82;4.53;;;;;;;16.39;66.43;92913.13;5127811;28;20035;-72
2023/04/30 07:04:59;;;;;;;9.10;3.42;;;;;;;16.48;62.78;92906.41;5127915;28;20039;-73
2023/04/30 07:07:26;;;;;;;14.25;4.70;;;;;;;16.43;60.66;92906.38;5126859;28;20187;-72
2023/04/30 07:09:55;;;;;;;22.30;6.93;;;;;;;15.94;61.40;92912.63;5127527;28;20047;-72
2023/04/30 07:12:22;;;;;;;19.45;6.38;;;;;;;16.17;66.87;92909.66;5127945;28;20044;-72
2023/04/30 07:14:48;;;;;;;22.42;6.10;;;;;;;16.57;66.25;92914.47;5127729;28;20083;-72
2023/04/30 07:17:15;;;;;;;20.38;6.13;;;;;;;16.23;63.23;92907.88;5104067;28;20407;-73
2023/04/30 07:19:42;;;;;;;17.33;7.05;;;;;;;16.40;65.48;92910.25;5121752;28;20051;-72
2023/04/30 07:22:09;;;;;;;13.88;5.25;;;;;;;16.46;64.56;92918.06;5124210;28;20043;-72
2023/04/30 07:24:36;;;;;;;12.77;5.05;;;;;;;16.42;62.98;92910.81;5128000;28;20051;-72
2023/04/30 07:27:06;;;;;;;13.93;6.03;;;;;;;16.19;63.76;92901.63;5127634;28;20119;-73
2023/04/30 07:29:32;;;;;;;12.32;3.63;;;;;;;15.74;62.74;92914.03;5127495;28;20490;-73
2023/04/30 07:31:59;;;;;;;14.23;5.43;;;;;;;15.56;66.16;92922.97;5127425;28;20054;-73
2023/04/30 07:34:26;;;;;;;16.42;5.80;;;;;;;15.71;64.59;92919.72;5116383;28;20058;-73
2023/04/30 07:36:53;;;;;;;16.05;5.80;;;;;;;15.67;66.61;92921.22;5124190;28;20100;-73
2023/04/30 07:39:20;;;;;;;14.93;5.03;;;;;;;15.37;66.31;92925.94;5127566;28;20047;-73
2023/04/30 07:41:46;;;;;;;16.85;6.78;;;;;;;14.71;70.51;92930.19;5126940;28;20730;-73
2023/04/30 07:44:15;;;;;;;17.00;6.78;;;;;;;14.78;71.55;92930.03;5127124;28;20047;-73
2023/04/30 07:46:42;;;;;;;17.25;6.80;;;;;;;14.64;73.09;92932.19;5126630;28;20088;-73
2023/04/30 07:49:09;;;;;;;22.88;7.78;;;;;;;14.51;74.07;92935.91;5127711;27;20055;-73
2023/04/30 07:51:36;;;;;;;18.48;6.53;;;;;;;14.60;73.43;92925.91;5131329;27;20054;-73
2023/04/30 07:54:03;;;;;;;18.63;6.88;;;;;;;14.53;73.67;92944.97;5130945;27;20054;-73
2023/04/30 07:56:29;;;;;;;13.43;6.80;;;;;;;14.47;76.26;92934.81;5130224;27;20043;-73
2023/04/30 07:58:56;;;;;;;21.70;7.93;;;;;;;14.60;77.88;92951.75;5126856;27;20048;-73
2023/04/30 08:01:25;;;;;;;22.23;7.20;;;;;;;14.37;76.67;92936.25;5114930;27;20048;-73
2023/04/30 08:03:51;;;;;;;22.52;7.47;;;;;;;14.40;78.90;92945.34;5115481;27;20044;-72
2023/04/30 08:06:19;;;;;;;17.88;6.55;;;;;;;14.26;78.06;92950.06;5119044;27;20043;-73
2023/04/30 08:08:45;;;;;;;9.73;6.20;;;;;;;14.30;79.24;92951.94;5115890;27;20039;-72
2023/04/30 08:11:12;;;;;;;15.63;6.65;;;;;;;14.32;79.13;92946.53;5121177;27;20074;-72
2023/04/30 08:13:41;;;;;;;10.88;5.22;;;;;;;14.43;78.93;92952.59;5130652;27;20054;-72
2023/04/30 08:16:08;;;;;;;11.63;5.97;;;;;;;14.58;78.68;92952.00;5123198;27;20130;-72
2023/04/30 08:18:37;;;;;;;9.23;5.25;;;;;;;14.79;77.47;92952.28;5114337;27;20043;-72
2023/04/30 08:21:05;;;;;;;8.30;5.18;;;;;;;14.98;76.44;92951.94;5130844;27;20410;-72
2023/04/30 08:23:32;;;;;;;10.98;5.38;;;;;;;15.19;74.86;92952.94;5130443;27;20039;-72
2023/04/30 08:25:58;;;;;;;10.82;5.95;;;;;;;15.40;73.90;92945.34;5130545;27;20053;-72
2023/04/30 08:28:25;;;;;;;12.93;5.22;;;;;;;15.60;72.95;92947.34;5124608;27;20909;-72
2023/04/30 08:30:52;;;;;;;9.90;5.10;;;;;;;15.49;68.40;92944.66;5122239;27;20058;-72
2023/04/30 08:33:18;;;;;;;13.52;5.80;;;;;;;15.76;67.92;92941.25;5129839;27;20415;-72
2023/04/30 08:35:47;;;;;;;10.85;5.57;;;;;;;15.89;68.39;92937.44;5102661;27;20044;-73
2023/04/30 08:38:13;;;;;;;14.50;4.90;;;;;;;15.52;71.38;92940.03;5128814;27;20579;-73
2023/04/30 08:40:41;;;;;;;10.18;4.32;;;;;;;15.94;70.71;92939.31;5129901;27;20096;-72
2023/04/30 08:43:10;;;;;;;9.38;3.97;;;;;;;15.38;70.15;92937.84;5130050;27;20047;-73
2023/04/30 08:45:37;;;;;;;8.15;4.30;;;;;;;15.30;70.36;92935.69;5129843;27;20047;-73
2023/04/30 08:48:05;;;;;;;8.45;4.13;;;;;;;15.22;74.31;92934.31;5129680;27;20072;-72
2023/04/30 08:50:32;;;;;;;14.68;4.90;;;;;;;15.53;73.13;92919.06;5129722;27;20051;-72
2023/04/30 08:53:01;;;;;;;14.27;6.53;;;;;;;15.91;68.21;92926.84;5130276;27;20107;-72
2023/04/30 08:55:28;;;;;;;14.32;6.43;;;;;;;16.15;68.18;92919.50;5129584;27;20107;-73
2023/04/30 08:57:54;;;;;;;8.20;3.38;;;;;;;15.67;63.88;92932.38;5130282;27;20039;-73
2023/04/30 09:00:21;;;;;;;16.35;4.65;;;;;;;15.93;64.29;92926.63;5128982;27;20062;-72
2023/04/30 09:02:49;;;;;;;13.77;4.57;;;;;;;15.86;64.13;92922.41;5129251;27;20047;-72
2023/04/30 09:05:16;;;;;;;11.95;3.85;;;;;;;16.40;65.23;92927.66;5129583;27;20047;-72
2023/04/30 09:07:44;;;;;;;9.10;3.80;;;;;;;16.44;62.40;92923.53;5129661;27;20104;-73
2023/04/30 09:10:19;;;;;;;10.65;4.75;;;;;;;16.81;62.65;92909.63;5129375;27;20415;-72
2023/04/30 09:12:59;;;;;;;11.63;4.47;;;;;;;17.36;65.32;92903.28;5129879;27;20517;-73
2023/04/30 09:15:26;;;;;;;12.23;4.10;;;;;;;17.83;63.13;92908.44;5127620;27;20786;-73
2023/04/30 09:18:06;;;;;;;6.65;2.80;;;;;;;18.50;62.02;92908.28;5109051;28;20047;-73
2023/04/30 09:20:33;;;;;;;9.60;3.22;;;;;;;19.03;59.50;92909.63;5116832;27;20039;-73
2023/04/30 09:23:06;;;;;;;11.85;3.97;;;;;;;19.59;58.13;92901.69;5129025;27;20096;-73
2023/04/30 09:25:40;;;;;;;8.75;3.90;;;;;;;19.98;53.96;92898.25;5129581;27;20518;-73
2023/04/30 09:28:08;;;;;;;7.38;3.38;;;;;;;20.26;53.14;92895.06;5129398;27;20046;-73
2023/04/30 09:30:35;;;;;;;11.57;3.22;;;;;;;20.32;51.54;92878.31;5129272;27;20086;-73
2023/04/30 09:33:02;;;;;;;14.48;4.32;;;;;;;20.18;51.23;92891.25;5128685;27;20047;-73
2023/04/30 09:35:30;;;;;;;9.20;3.50;;;;;;;19.03;52.90;92895.81;5129228;27;20047;-73
2023/04/30 09:37:58;;;;;;;11.70;3.17;;;;;;;18.81;53.08;92899.56;5120040;27;20096;-73
2023/04/30 09:40:33;;;;;;;16.75;4.88;;;;;;;18.83;56.88;92887.84;5120187;27;20054;-73
2023/04/30 09:43:02;;;;;;;8.10;3.50;;;;;;;18.50;54.98;92887.47;5128936;27;20518;-73
2023/04/30 09:45:39;;;;;;;4.90;3.15;;;;;;;18.69;54.92;92892.88;5128485;27;20051;-74
2023/04/30 09:48:10;;;;;;;7.28;2.65;;;;;;;18.48;56.32;92891.41;5104396;27;20050;-73
2023/04/30 09:50:40;;;;;;;9.93;3.70;;;;;;;18.56;55.93;92890.81;5128806;27;20082;-73
2023/04/30 09:53:08;;;;;;;10.02;3.50;;;;;;;18.70;55.83;92875.41;5128672;27;20051;-73
2023/04/30 09:55:37;;;;;;;5.22;3.40;;;;;;;18.43;54.64;92881.81;5128491;27;20051;-73
2023/04/30 09:58:07;;;;;;;6.35;3.15;;;;;;;18.28;55.67;92891.19;5129090;27;20054;-73
2023/04/30 10:00:35;;;;;;;8.70;3.35;;;;;;;18.35;55.10;92888.31;5127872;27;20050;-73
2023/04/30 10:03:07;;;;;;;8.40;3.28;;;;;;;17.93;53.70;92879.84;5128872;27;20070;-73
2023/04/30 10:05:37;;;;;;;10.60;3.60;;;;;;;18.35;57.78;92877.94;5127699;27;20507;-73
2023/04/30 10:08:07;;;;;;;13.05;3.90;;;;;;;18.64;54.21;92871.28;5128661;27;20431;-73
2023/04/30 10:10:35;;;;;;;9.27;3.95;;;;;;;18.78;52.09;92861.06;5128102;27;20538;-73
2023/04/30 10:13:07;;;;;;;23.27;7.68;;;;;;;18.92;55.34;92859.44;5128307;27;20054;-74
2023/04/30 10:15:39;;;;;;;6.63;3.03;;;;;;;19.04;53.80;92866.94;5125375;27;20452;-74
2023/04/30 10:18:11;;;;;;;7.55;3.50;;;;;;;18.58;53.98;92867.94;5108071;28;20043;-74
2023/04/30 10:20:39;;;;;;;6.57;3.05;;;;;;;18.60;54.05;92865.09;5115526;27;20039;-74
2023/04/30 10:23:07;;;;;;;6.10;2.90;;;;;;;18.24;55.13;92873.81;5128360;27;20123;-73
2023/04/30 10:25:34;;;;;;;9.75;3.50;;;;;;;17.90;60.54;92869.97;5128652;27;20086;-73
2023/04/30 10:28:01;;;;;;;8.43;3.95;;;;;;;17.69;59.94;92867.41;5128704;27;20062;-73
2023/04/30 10:30:30;;;;;;;11.35;4.50;;;;;;;17.18;65.84;92871.56;5127844;27;20521;-73
2023/04/30 10:33:07;;;;;;;13.27;5.25;;;;;;;17.21;66.46;92867.69;5127841;27;20452;-73
2023/04/30 10:35:45;;;;;;;10.38;4.55;;;;;;;17.06;64.94;92871.06;5127828;27;20092;-73
2023/04/30 10:38:18;;;;;;;7.32;3.88;;;;;;;16.56;63.96;92868.84;5113009;27;20039;-74
2023/04/30 10:40:46;;;;;;;11.48;5.15;;;;;;;16.26;62.69;92865.13;5114722;27;20051;-73
2023/04/30 10:43:13;;;;;;;10.13;5.47;;;;;;;16.21;64.69;92852.94;5127694;27;20142;-73
2023/04/30 10:45:43;;;;;;;8.80;4.70;;;;;;;15.66;66.60;92873.06;5127789;27;20047;-73
2023/04/30 10:48:14;;;;;;;8.00;5.10;;;;;;;15.30;70.77;92876.97;5101280;27;20046;-73
2023/04/30 10:50:42;;;;;;;5.95;4.40;;;;;;;15.15;68.62;92866.50;5127398;27;20096;-73
2023/04/30 10:53:13;;;;;;;10.77;6.20;;;;;;;15.19;80.21;92875.31;5127193;27;20378;-73
2023/04/30 10:55:47;;;;;;;29.50;16.73;;;;;;;14.92;72.99;92858.03;5128231;27;20907;-73
2023/04/30 10:58:29;;;;;;;29.63;12.95;;;;;;;15.02;73.92;92868.47;5128010;28;20441;-73
2023/04/30 11:01:04;;;;;;;8.57;5.82;;;;;;;15.06;71.24;92856.59;5128115;28;20051;-73
2023/04/30 11:03:36;;;;;;;7.32;4.43;;;;;;;15.34;72.89;92861.72;5127543;28;20122;-73
2023/04/30 11:06:08;;;;;;;8.63;5.47;;;;;;;15.73;70.63;92856.28;5127948;28;20049;-72
2023/04/30 11:08:36;;;;;;;4.93;4.10;;;;;;;15.44;66.50;92842.91;5127450;28;20088;-73
2023/04/30 11:11:04;;;;;;;4.40;3.90;;;;;;;15.59;67.76;92853.34;5127742;28;20055;-73
2023/04/30 11:13:41;;;;;;;6.55;3.92;;;;;;;15.57;64.93;92858.00;5127623;28;20541;-73
2023/04/30 11:16:07;;;;;;;6.10;4.25;;;;;;;15.62;64.72;92834.75;5106377;28;20105;-73
2023/04/30 11:18:42;;;;;;;10.63;6.47;;;;;;;15.74;65.96;92852.66;5119170;28;20055;-73
2023/04/30 11:21:10;;;;;;;12.27;5.88;;;;;;;15.77;66.21;92853.97;5127106;28;20046;-73
2023/04/30 11:23:37;;;;;;;11.13;7.97;;;;;;;15.99;66.59;92853.09;5127805;27;20079;-73
2023/04/30 11:26:04;;;;;;;7.15;5.53;;;;;;;16.02;67.25;92845.59;5131673;27;20555;-73
2023/04/30 11:28:34;;;;;;;10.23;5.90;;;;;;;16.02;65.19;92845.59;5131568;27;20092;-73